Pepperell, MA

2:24 PM EDT on October 24, 2014 (GMT -0400)
Pepperell MA WX | Change Station
CLOSE
Current Station
Personal Weather Station
Location: Pepperell, MA
Elevation: 207 ft
Nearby Weather Stations

Elev 207 ft 42.67 °N, 71.56 °W | Updated 4 minutes ago

Overcast
Overcast
52.1 °F
Feels Like 52.1 °F
N
1.0
Wind Variable Wind from North
Gusts 5.0 mph

Today
High -- | Low -- °F
--% Chance of Precip.
Yesterday
High -- | Low -- °F
Precip. -- in
7:10 AM 5:50 PM
New Moon, 1% visible
Pressure 30.44 in
Visibility 10.0 miles
Clouds Overcast 2200 ft
Dew Point 46 °F
Humidity 79%
Rainfall 0.11 in
Snow Depth Not available.
UV 1 out of 12
Pollen .30 out of 12
Air Quality Not available.
Flu Activity No Activity
METAR KASH 241751Z 36010G16KT 10SM OVC022 11/07 A2971 RMK AO2 58007 60000 T01110066 10111 20094 RAB06E50 P0000 SLP308 $

More Conditions Fewer Conditions

Pressure 30.44 in
Visibility 10.0 miles
Clouds Overcast 2200 ft
Dew Point 46 °F
Humidity 79%
Rainfall 0.11 in
Snow Depth Not available.
UV 1 out of 12
Pollen .30 out of 12
Air Quality Not available.
Flu Activity No Activity
METAR KASH 241751Z 36010G16KT 10SM OVC022 11/07 A2971 RMK AO2 58007 60000 T01110066 10111 20094 RAB06E50 P0000 SLP308 $

More Conditions Fewer Conditions

10-Day Weather Forecast

Almanac

Astronomy

Oct. 24, 2014 Rise Set
Actual Time 7:10 AM EDT 5:50 PM EDT
Civil Twilight 6:41 AM EDT 6:19 PM EDT
Nautical Twilight 6:08 AM EDT 6:51 PM EDT
Astronomical Twilight 5:35 AM EDT 7:24 PM EDT
Moon 7:47 AM EDT 6:27 PM EDT
Length of Visible Light 11h 37m
Length of Day
10h 39m
Tomorrow will be 2m 41s shorter.
New Moon, 1% of the Moon is Illuminated
Today
New Moon
Oct 30
First Quarter
Nov 6
Full
Nov 14
Last Quarter
Nov 22
New

Today's Extremes

State Highs State Lows

Community

WunderPhotos

Upload Photos

1,764,631 photos uploaded!

WunderBlogs® & News

Nearby

Air Quality

  Air Quality AQ Index Pollutant
Friday Good
PM2.5
Friday Good
OZONE

Snow Depth

Station Depth Elevation
No new snow has been reported.

Earthquake Activity

City Distance Mag. Time & Date
No recent earthquake activity has been reported nearby.
Minimum magnitude displayed is 2.5.

Coastal Water Temperatures

Place Temperature
No Stations Reporting

Nearby Weather Stations